sensor_id;sensor_type;location;lat;lon;timestamp;pressure;altitude;pressure_sealevel;temperature
42197;BMP280;27866;48.146;17.098;2023-07-20T00:03:17;98924.59;;;26.27
42197;BMP280;27866;48.146;17.098;2023-07-20T00:07:29;98930.75;;;26.21
42197;BMP280;27866;48.146;17.098;2023-07-20T00:11:48;98912.47;;;26.14
42197;BMP280;27866;48.146;17.098;2023-07-20T00:16:00;98917.47;;;26.04
42197;BMP280;27866;48.146;17.098;2023-07-20T00:20:11;98914.50;;;25.94
42197;BMP280;27866;48.146;17.098;2023-07-20T00:24:22;98914.88;;;25.80
42197;BMP280;27866;48.146;17.098;2023-07-20T00:28:33;98911.69;;;25.66
42197;BMP280;27866;48.146;17.098;2023-07-20T00:32:45;98913.03;;;25.51
42197;BMP280;27866;48.146;17.098;2023-07-20T00:36:56;98920.25;;;25.44
42197;BMP280;27866;48.146;17.098;2023-07-20T00:41:07;98917.41;;;25.39
42197;BMP280;27866;48.146;17.098;2023-07-20T00:45:19;98911.84;;;25.47
42197;BMP280;27866;48.146;17.098;2023-07-20T00:49:30;98931.41;;;25.52
42197;BMP280;27866;48.146;17.098;2023-07-20T00:53:42;98923.72;;;25.44
42197;BMP280;27866;48.146;17.098;2023-07-20T00:57:53;98937.88;;;25.32
42197;BMP280;27866;48.146;17.098;2023-07-20T01:02:04;98955.91;;;24.75
42197;BMP280;27866;48.146;17.098;2023-07-20T01:10:39;98949.91;;;24.37
42197;BMP280;27866;48.146;17.098;2023-07-20T01:14:52;98951.75;;;24.43
42197;BMP280;27866;48.146;17.098;2023-07-20T01:19:03;98934.19;;;24.54
42197;BMP280;27866;48.146;17.098;2023-07-20T01:32:26;98915.91;;;24.89
42197;BMP280;27866;48.146;17.098;2023-07-20T01:36:38;98926.03;;;24.98
42197;BMP280;27866;48.146;17.098;2023-07-20T01:40:49;98922.75;;;25.03
42197;BMP280;27866;48.146;17.098;2023-07-20T01:45:00;98935.38;;;25.07
42197;BMP280;27866;48.146;17.098;2023-07-20T01:49:12;98933.91;;;25.17
42197;BMP280;27866;48.146;17.098;2023-07-20T01:53:23;98935.31;;;25.20
42197;BMP280;27866;48.146;17.098;2023-07-20T01:57:34;98935.50;;;25.18
42197;BMP280;27866;48.146;17.098;2023-07-20T02:01:45;98936.28;;;25.25
42197;BMP280;27866;48.146;17.098;2023-07-20T02:05:56;98944.22;;;25.31
42197;BMP280;27866;48.146;17.098;2023-07-20T02:10:10;98949.06;;;25.34
42197;BMP280;27866;48.146;17.098;2023-07-20T02:14:22;98944.53;;;25.41
42197;BMP280;27866;48.146;17.098;2023-07-20T02:18:33;98945.91;;;25.50
42197;BMP280;27866;48.146;17.098;2023-07-20T02:22:45;98956.53;;;25.43
42197;BMP280;27866;48.146;17.098;2023-07-20T02:26:56;98960.38;;;25.47
42197;BMP280;27866;48.146;17.098;2023-07-20T02:31:07;98952.66;;;25.46
42197;BMP280;27866;48.146;17.098;2023-07-20T02:35:18;98966.88;;;25.51
42197;BMP280;27866;48.146;17.098;2023-07-20T02:39:30;98971.38;;;25.51
42197;BMP280;27866;48.146;17.098;2023-07-20T02:43:41;98990.97;;;25.50
42197;BMP280;27866;48.146;17.098;2023-07-20T02:47:52;98997.72;;;25.46
42197;BMP280;27866;48.146;17.098;2023-07-20T02:52:03;99011.00;;;25.40
42197;BMP280;27866;48.146;17.098;2023-07-20T02:56:14;99011.88;;;25.34
42197;BMP280;27866;48.146;17.098;2023-07-20T03:00:26;99013.91;;;25.32
42197;BMP280;27866;48.146;17.098;2023-07-20T03:04:37;99003.78;;;25.23
42197;BMP280;27866;48.146;17.098;2023-07-20T03:08:48;99013.00;;;25.14
42197;BMP280;27866;48.146;17.098;2023-07-20T03:13:02;99016.91;;;25.12
42197;BMP280;27866;48.146;17.098;2023-07-20T03:17:13;99016.72;;;25.00
42197;BMP280;27866;48.146;17.098;2023-07-20T03:21:25;99016.34;;;24.91
42197;BMP280;27866;48.146;17.098;2023-07-20T03:25:36;99025.94;;;24.92
42197;BMP280;27866;48.146;17.098;2023-07-20T03:29:48;99041.00;;;24.91
42197;BMP280;27866;48.146;17.098;2023-07-20T03:34:00;99045.91;;;24.88
42197;BMP280;27866;48.146;17.098;2023-07-20T03:38:11;99051.56;;;24.97
42197;BMP280;27866;48.146;17.098;2023-07-20T03:42:23;99063.81;;;24.98
42197;BMP280;27866;48.146;17.098;2023-07-20T03:46:34;99068.09;;;25.06
42197;BMP280;27866;48.146;17.098;2023-07-20T03:50:46;99080.09;;;25.08
42197;BMP280;27866;48.146;17.098;2023-07-20T03:54:57;99082.94;;;25.13
42197;BMP280;27866;48.146;17.098;2023-07-20T03:59:08;99087.22;;;25.14
42197;BMP280;27866;48.146;17.098;2023-07-20T04:03:19;99090.47;;;25.16
42197;BMP280;27866;48.146;17.098;2023-07-20T04:07:31;99094.31;;;25.20
42197;BMP280;27866;48.146;17.098;2023-07-20T04:11:42;99082.53;;;25.16
42197;BMP280;27866;48.146;17.098;2023-07-20T04:15:53;99105.53;;;25.15
42197;BMP280;27866;48.146;17.098;2023-07-20T04:20:05;99103.28;;;25.19
42197;BMP280;27866;48.146;17.098;2023-07-20T04:24:16;99100.84;;;25.24
42197;BMP280;27866;48.146;17.098;2023-07-20T04:28:28;99110.00;;;25.27
42197;BMP280;27866;48.146;17.098;2023-07-20T04:32:39;99125.53;;;25.18
42197;BMP280;27866;48.146;17.098;2023-07-20T04:36:57;99121.38;;;25.28
42197;BMP280;27866;48.146;17.098;2023-07-20T04:41:10;99119.94;;;25.32
42197;BMP280;27866;48.146;17.098;2023-07-20T04:45:26;99120.16;;;25.30
42197;BMP280;27866;48.146;17.098;2023-07-20T04:49:37;99124.25;;;25.33
42197;BMP280;27866;48.146;17.098;2023-07-20T04:53:48;99142.81;;;25.20
42197;BMP280;27866;48.146;17.098;2023-07-20T04:58:03;99136.13;;;25.12
42197;BMP280;27866;48.146;17.098;2023-07-20T05:02:15;99135.13;;;25.13
42197;BMP280;27866;48.146;17.098;2023-07-20T05:06:26;99136.53;;;25.15
42197;BMP280;27866;48.146;17.098;2023-07-20T05:10:38;99136.31;;;25.16
42197;BMP280;27866;48.146;17.098;2023-07-20T05:14:49;99123.25;;;25.21
42197;BMP280;27866;48.146;17.098;2023-07-20T05:19:00;99129.16;;;25.29
42197;BMP280;27866;48.146;17.098;2023-07-20T05:23:12;99132.81;;;25.28
42197;BMP280;27866;48.146;17.098;2023-07-20T05:27:23;99139.09;;;25.40
42197;BMP280;27866;48.146;17.098;2023-07-20T05:31:34;99138.00;;;25.54
42197;BMP280;27866;48.146;17.098;2023-07-20T05:35:45;99145.44;;;25.82
42197;BMP280;27866;48.146;17.098;2023-07-20T05:39:57;99144.94;;;25.97
42197;BMP280;27866;48.146;17.098;2023-07-20T05:44:08;99133.88;;;26.00
42197;BMP280;27866;48.146;17.098;2023-07-20T05:48:19;99134.84;;;26.05
42197;BMP280;27866;48.146;17.098;2023-07-20T05:52:30;99150.50;;;25.89
42197;BMP280;27866;48.146;17.098;2023-07-20T05:56:41;99153.19;;;25.83
42197;BMP280;27866;48.146;17.098;2023-07-20T06:00:53;99157.53;;;26.01
42197;BMP280;27866;48.146;17.098;2023-07-20T06:05:04;99162.72;;;26.20
42197;BMP280;27866;48.146;17.098;2023-07-20T06:09:16;99157.25;;;26.15
42197;BMP280;27866;48.146;17.098;2023-07-20T06:13:27;99161.47;;;26.29
42197;BMP280;27866;48.146;17.098;2023-07-20T06:17:38;99169.56;;;26.40
42197;BMP280;27866;48.146;17.098;2023-07-20T06:21:49;99175.16;;;26.56
42197;BMP280;27866;48.146;17.098;2023-07-20T06:26:00;99174.84;;;26.94
42197;BMP280;27866;48.146;17.098;2023-07-20T06:30:11;99171.59;;;27.27
42197;BMP280;27866;48.146;17.098;2023-07-20T06:34:22;99177.22;;;27.36
42197;BMP280;27866;48.146;17.098;2023-07-20T06:38:33;99176.91;;;27.27
42197;BMP280;27866;48.146;17.098;2023-07-20T06:42:45;99185.06;;;27.49
42197;BMP280;27866;48.146;17.098;2023-07-20T06:46:56;99175.94;;;27.74
42197;BMP280;27866;48.146;17.098;2023-07-20T06:51:07;99182.44;;;27.77
42197;BMP280;27866;48.146;17.098;2023-07-20T06:55:18;99173.22;;;27.62
42197;BMP280;27866;48.146;17.098;2023-07-20T06:59:29;99185.25;;;27.82
42197;BMP280;27866;48.146;17.098;2023-07-20T07:03:40;99183.13;;;27.73
42197;BMP280;27866;48.146;17.098;2023-07-20T07:07:51;99190.41;;;27.95
42197;BMP280;27866;48.146;17.098;2023-07-20T07:12:02;99197.66;;;30.71
42197;BMP280;27866;48.146;17.098;2023-07-20T07:16:14;99200.06;;;35.23
42197;BMP280;27866;48.146;17.098;2023-07-20T07:20:29;99181.91;;;38.44
42197;BMP280;27866;48.146;17.098;2023-07-20T07:24:40;99185.34;;;38.98
42197;BMP280;27866;48.146;17.098;2023-07-20T07:28:52;99180.00;;;38.44
42197;BMP280;27866;48.146;17.098;2023-07-20T07:33:03;99155.66;;;38.04
42197;BMP280;27866;48.146;17.098;2023-07-20T07:37:14;99168.56;;;34.65
42197;BMP280;27866;48.146;17.098;2023-07-20T07:41:26;99171.75;;;33.15
42197;BMP280;27866;48.146;17.098;2023-07-20T07:45:37;99165.47;;;31.35
42197;BMP280;27866;48.146;17.098;2023-07-20T07:49:48;99165.78;;;30.85
42197;BMP280;27866;48.146;17.098;2023-07-20T07:54:00;99171.31;;;31.69
42197;BMP280;27866;48.146;17.098;2023-07-20T07:58:11;99166.44;;;30.60
42197;BMP280;27866;48.146;17.098;2023-07-20T08:02:23;99169.19;;;29.95
42197;BMP280;27866;48.146;17.098;2023-07-20T08:06:34;99173.47;;;29.58
42197;BMP280;27866;48.146;17.098;2023-07-20T08:10:45;99173.19;;;29.21
42197;BMP280;27866;48.146;17.098;2023-07-20T08:14:56;99188.22;;;32.97
42197;BMP280;27866;48.146;17.098;2023-07-20T08:19:07;99179.69;;;34.04
42197;BMP280;27866;48.146;17.098;2023-07-20T08:23:18;99188.66;;;32.28
42197;BMP280;27866;48.146;17.098;2023-07-20T08:27:29;99169.34;;;32.87
42197;BMP280;27866;48.146;17.098;2023-07-20T08:31:40;99185.28;;;31.18
42197;BMP280;27866;48.146;17.098;2023-07-20T08:35:51;99181.16;;;31.84
42197;BMP280;27866;48.146;17.098;2023-07-20T08:40:02;99168.41;;;31.17
42197;BMP280;27866;48.146;17.098;2023-07-20T08:44:14;99170.22;;;31.28
42197;BMP280;27866;48.146;17.098;2023-07-20T08:48:26;99165.94;;;31.11
42197;BMP280;27866;48.146;17.098;2023-07-20T08:52:38;99167.59;;;31.70
42197;BMP280;27866;48.146;17.098;2023-07-20T08:56:49;99170.78;;;31.30
42197;BMP280;27866;48.146;17.098;2023-07-20T09:01:00;99177.06;;;32.49
42197;BMP280;27866;48.146;17.098;2023-07-20T09:05:13;99185.84;;;37.70
42197;BMP280;27866;48.146;17.098;2023-07-20T09:09:25;99176.00;;;38.37
42197;BMP280;27866;48.146;17.098;2023-07-20T09:13:36;99164.22;;;34.50
42197;BMP280;27866;48.146;17.098;2023-07-20T09:17:51;99173.97;;;33.72
42197;BMP280;27866;48.146;17.098;2023-07-20T09:22:05;99160.88;;;35.74
42197;BMP280;27866;48.146;17.098;2023-07-20T09:26:16;99189.06;;;38.35
42197;BMP280;27866;48.146;17.098;2023-07-20T09:30:27;99165.69;;;36.33
42197;BMP280;27866;48.146;17.098;2023-07-20T09:34:38;99174.41;;;36.63
42197;BMP280;27866;48.146;17.098;2023-07-20T09:38:49;99208.81;;;37.90
42197;BMP280;27866;48.146;17.098;2023-07-20T09:43:00;99172.72;;;38.22
42197;BMP280;27866;48.146;17.098;2023-07-20T09:47:13;99166.38;;;34.38
42197;BMP280;27866;48.146;17.098;2023-07-20T09:51:32;99164.19;;;33.12
42197;BMP280;27866;48.146;17.098;2023-07-20T09:55:47;99168.66;;;33.37
42197;BMP280;27866;48.146;17.098;2023-07-20T09:59:58;99189.78;;;39.38
42197;BMP280;27866;48.146;17.098;2023-07-20T10:04:10;99191.25;;;45.48
42197;BMP280;27866;48.146;17.098;2023-07-20T10:08:24;99192.03;;;47.15
42197;BMP280;27866;48.146;17.098;2023-07-20T10:12:36;99171.50;;;48.59
42197;BMP280;27866;48.146;17.098;2023-07-20T10:16:50;99182.09;;;41.64
42197;BMP280;27866;48.146;17.098;2023-07-20T10:21:03;99173.34;;;39.87
42197;BMP280;27866;48.146;17.098;2023-07-20T10:25:15;99165.03;;;37.88
42197;BMP280;27866;48.146;17.098;2023-07-20T10:29:27;99178.47;;;35.52
42197;BMP280;27866;48.146;17.098;2023-07-20T10:33:40;99181.63;;;33.54
42197;BMP280;27866;48.146;17.098;2023-07-20T10:37:53;99184.25;;;31.55
42197;BMP280;27866;48.146;17.098;2023-07-20T10:42:08;99185.56;;;31.53
42197;BMP280;27866;48.146;17.098;2023-07-20T10:46:43;99194.03;;;37.65
42197;BMP280;27866;48.146;17.098;2023-07-20T10:51:12;99186.00;;;44.33
42197;BMP280;27866;48.146;17.098;2023-07-20T10:55:26;99184.63;;;46.89
42197;BMP280;27866;48.146;17.098;2023-07-20T10:59:37;99175.06;;;46.71
42197;BMP280;27866;48.146;17.098;2023-07-20T11:03:51;99162.84;;;48.42
42197;BMP280;27866;48.146;17.098;2023-07-20T11:08:11;99144.81;;;49.58
42197;BMP280;27866;48.146;17.098;2023-07-20T11:12:23;99140.81;;;42.82
42197;BMP280;27866;48.146;17.098;2023-07-20T11:20:45;99136.63;;;37.23
42197;BMP280;27866;48.146;17.098;2023-07-20T11:25:01;99148.53;;;36.15
42197;BMP280;27866;48.146;17.098;2023-07-20T11:29:12;99145.88;;;36.10
42197;BMP280;27866;48.146;17.098;2023-07-20T11:33:24;99143.75;;;35.31
42197;BMP280;27866;48.146;17.098;2023-07-20T11:37:35;99155.56;;;36.16
42197;BMP280;27866;48.146;17.098;2023-07-20T11:41:47;99125.13;;;42.71
42197;BMP280;27866;48.146;17.098;2023-07-20T11:45:59;99137.47;;;46.22
42197;BMP280;27866;48.146;17.098;2023-07-20T11:50:10;99144.28;;;48.06
42197;BMP280;27866;48.146;17.098;2023-07-20T11:54:24;99133.84;;;48.81
42197;BMP280;27866;48.146;17.098;2023-07-20T11:58:36;99113.34;;;49.37
42197;BMP280;27866;48.146;17.098;2023-07-20T12:02:53;99124.84;;;47.09
42197;BMP280;27866;48.146;17.098;2023-07-20T12:07:07;99116.28;;;48.67
42197;BMP280;27866;48.146;17.098;2023-07-20T12:11:38;99111.66;;;49.51
42197;BMP280;27866;48.146;17.098;2023-07-20T12:15:49;99107.97;;;49.22
42197;BMP280;27866;48.146;17.098;2023-07-20T12:20:03;99094.28;;;48.86
42197;BMP280;27866;48.146;17.098;2023-07-20T12:24:14;99095.53;;;47.13
42197;BMP280;27866;48.146;17.098;2023-07-20T12:28:28;99090.28;;;48.83
42197;BMP280;27866;48.146;17.098;2023-07-20T12:32:39;99072.56;;;44.87
42197;BMP280;27866;48.146;17.098;2023-07-20T12:36:50;99064.41;;;42.13
42197;BMP280;27866;48.146;17.098;2023-07-20T12:41:02;99078.91;;;41.30
42197;BMP280;27866;48.146;17.098;2023-07-20T12:45:14;99074.53;;;45.52
42197;BMP280;27866;48.146;17.098;2023-07-20T12:49:25;99067.00;;;47.59
42197;BMP280;27866;48.146;17.098;2023-07-20T12:53:36;99050.50;;;46.46
42197;BMP280;27866;48.146;17.098;2023-07-20T12:57:47;99058.22;;;44.89
42197;BMP280;27866;48.146;17.098;2023-07-20T13:01:58;99043.81;;;47.26
42197;BMP280;27866;48.146;17.098;2023-07-20T13:06:11;99034.81;;;48.81
42197;BMP280;27866;48.146;17.098;2023-07-20T13:10:22;99044.47;;;49.12
42197;BMP280;27866;48.146;17.098;2023-07-20T13:14:33;99041.63;;;47.65
42197;BMP280;27866;48.146;17.098;2023-07-20T13:18:45;99020.31;;;48.44
42197;BMP280;27866;48.146;17.098;2023-07-20T13:22:58;99013.41;;;46.63
42197;BMP280;27866;48.146;17.098;2023-07-20T13:27:09;98994.41;;;47.26
42197;BMP280;27866;48.146;17.098;2023-07-20T13:31:20;99006.06;;;45.29
42197;BMP280;27866;48.146;17.098;2023-07-20T13:35:32;99040.13;;;41.70
42197;BMP280;27866;48.146;17.098;2023-07-20T13:39:43;99029.72;;;43.60
42197;BMP280;27866;48.146;17.098;2023-07-20T13:43:54;99026.53;;;41.16
42197;BMP280;27866;48.146;17.098;2023-07-20T13:48:05;99018.31;;;39.46
42197;BMP280;27866;48.146;17.098;2023-07-20T13:52:16;99024.34;;;41.35
42197;BMP280;27866;48.146;17.098;2023-07-20T13:56:28;99054.06;;;43.45
42197;BMP280;27866;48.146;17.098;2023-07-20T14:00:39;99045.59;;;43.30
42197;BMP280;27866;48.146;17.098;2023-07-20T14:04:51;99045.44;;;43.91
42197;BMP280;27866;48.146;17.098;2023-07-20T14:09:05;99039.66;;;44.12
42197;BMP280;27866;48.146;17.098;2023-07-20T14:13:16;99041.63;;;44.23
42197;BMP280;27866;48.146;17.098;2023-07-20T14:17:27;99041.63;;;44.43
42197;BMP280;27866;48.146;17.098;2023-07-20T14:21:38;99049.69;;;45.03
42197;BMP280;27866;48.146;17.098;2023-07-20T14:25:49;99043.13;;;44.21
42197;BMP280;27866;48.146;17.098;2023-07-20T14:30:00;99053.53;;;43.51
42197;BMP280;27866;48.146;17.098;2023-07-20T14:34:12;99047.38;;;44.30
42197;BMP280;27866;48.146;17.098;2023-07-20T14:38:25;99047.44;;;44.73
42197;BMP280;27866;48.146;17.098;2023-07-20T14:42:36;99048.53;;;44.41
42197;BMP280;27866;48.146;17.098;2023-07-20T14:46:49;99051.72;;;43.55
42197;BMP280;27866;48.146;17.098;2023-07-20T14:51:00;99051.88;;;41.96
42197;BMP280;27866;48.146;17.098;2023-07-20T14:55:11;99045.94;;;40.51
42197;BMP280;27866;48.146;17.098;2023-07-20T14:59:23;99054.88;;;39.35
42197;BMP280;27866;48.146;17.098;2023-07-20T15:03:34;99045.13;;;38.15
42197;BMP280;27866;48.146;17.098;2023-07-20T15:07:45;99038.53;;;37.45
42197;BMP280;27866;48.146;17.098;2023-07-20T15:11:56;99046.59;;;36.49
42197;BMP280;27866;48.146;17.098;2023-07-20T15:16:08;99029.94;;;35.68
42197;BMP280;27866;48.146;17.098;2023-07-20T15:20:20;99039.97;;;34.63
42197;BMP280;27866;48.146;17.098;2023-07-20T15:24:32;99035.38;;;34.48
42197;BMP280;27866;48.146;17.098;2023-07-20T15:28:44;99029.72;;;33.87
42197;BMP280;27866;48.146;17.098;2023-07-20T15:32:55;99021.88;;;33.61
42197;BMP280;27866;48.146;17.098;2023-07-20T15:37:10;99025.28;;;33.38
42197;BMP280;27866;48.146;17.098;2023-07-20T15:41:21;99023.69;;;33.42
42197;BMP280;27866;48.146;17.098;2023-07-20T15:45:33;99023.41;;;33.43
42197;BMP280;27866;48.146;17.098;2023-07-20T15:49:44;99019.22;;;33.02
42197;BMP280;27866;48.146;17.098;2023-07-20T15:53:56;99014.22;;;32.70
42197;BMP280;27866;48.146;17.098;2023-07-20T15:58:07;99023.75;;;32.57
42197;BMP280;27866;48.146;17.098;2023-07-20T16:02:19;99019.31;;;32.72
42197;BMP280;27866;48.146;17.098;2023-07-20T16:06:30;99016.81;;;32.65
42197;BMP280;27866;48.146;17.098;2023-07-20T16:10:41;99021.63;;;32.58
42197;BMP280;27866;48.146;17.098;2023-07-20T16:14:52;99013.75;;;32.83
42197;BMP280;27866;48.146;17.098;2023-07-20T16:19:04;99009.72;;;32.45
42197;BMP280;27866;48.146;17.098;2023-07-20T16:23:15;99022.53;;;32.08
42197;BMP280;27866;48.146;17.098;2023-07-20T16:27:26;99016.47;;;31.91
42197;BMP280;27866;48.146;17.098;2023-07-20T16:31:37;99014.50;;;31.77
42197;BMP280;27866;48.146;17.098;2023-07-20T16:35:48;99029.31;;;31.64
42197;BMP280;27866;48.146;17.098;2023-07-20T16:39:59;99022.19;;;31.48
42197;BMP280;27866;48.146;17.098;2023-07-20T16:44:11;99027.91;;;31.56
42197;BMP280;27866;48.146;17.098;2023-07-20T16:48:22;99020.91;;;31.76
42197;BMP280;27866;48.146;17.098;2023-07-20T16:52:33;99029.47;;;31.73
42197;BMP280;27866;48.146;17.098;2023-07-20T16:56:44;99030.28;;;31.74
42197;BMP280;27866;48.146;17.098;2023-07-20T17:01:02;99030.50;;;31.72
42197;BMP280;27866;48.146;17.098;2023-07-20T17:05:13;99023.16;;;31.63
42197;BMP280;27866;48.146;17.098;2023-07-20T17:09:24;99023.00;;;31.49
42197;BMP280;27866;48.146;17.098;2023-07-20T17:13:36;99032.66;;;31.29
42197;BMP280;27866;48.146;17.098;2023-07-20T17:17:48;99027.81;;;31.05
42197;BMP280;27866;48.146;17.098;2023-07-20T17:22:02;99028.25;;;30.82
42197;BMP280;27866;48.146;17.098;2023-07-20T17:26:13;99030.66;;;30.62
42197;BMP280;27866;48.146;17.098;2023-07-20T17:30:25;99027.75;;;30.48
42197;BMP280;27866;48.146;17.098;2023-07-20T17:34:36;99028.41;;;30.38
42197;BMP280;27866;48.146;17.098;2023-07-20T17:38:47;99040.06;;;30.33
42197;BMP280;27866;48.146;17.098;2023-07-20T17:42:59;99038.47;;;30.16
42197;BMP280;27866;48.146;17.098;2023-07-20T17:47:10;99032.91;;;30.06
42197;BMP280;27866;48.146;17.098;2023-07-20T17:51:21;99031.97;;;29.96
42197;BMP280;27866;48.146;17.098;2023-07-20T17:55:32;99033.88;;;29.84
42197;BMP280;27866;48.146;17.098;2023-07-20T17:59:43;99036.63;;;29.73
42197;BMP280;27866;48.146;17.098;2023-07-20T18:03:54;99036.31;;;29.59
42197;BMP280;27866;48.146;17.098;2023-07-20T18:08:05;99039.34;;;29.51
42197;BMP280;27866;48.146;17.098;2023-07-20T18:12:16;99045.69;;;29.34
42197;BMP280;27866;48.146;17.098;2023-07-20T18:16:27;99037.88;;;29.17
42197;BMP280;27866;48.146;17.098;2023-07-20T18:20:39;99041.50;;;29.00
42197;BMP280;27866;48.146;17.098;2023-07-20T18:24:50;99040.94;;;28.87
42197;BMP280;27866;48.146;17.098;2023-07-20T18:29:01;99055.31;;;28.75
42197;BMP280;27866;48.146;17.098;2023-07-20T18:33:12;99062.16;;;28.71
42197;BMP280;27866;48.146;17.098;2023-07-20T18:37:24;99061.59;;;28.58
42197;BMP280;27866;48.146;17.098;2023-07-20T18:41:35;99065.97;;;28.41
42197;BMP280;27866;48.146;17.098;2023-07-20T18:45:46;99061.00;;;28.33
42197;BMP280;27866;48.146;17.098;2023-07-20T18:49:58;99067.69;;;28.25
42197;BMP280;27866;48.146;17.098;2023-07-20T18:54:09;99073.00;;;28.14
42197;BMP280;27866;48.146;17.098;2023-07-20T18:58:20;99071.13;;;28.03
42197;BMP280;27866;48.146;17.098;2023-07-20T19:02:31;99077.66;;;27.89
42197;BMP280;27866;48.146;17.098;2023-07-20T19:06:42;99084.69;;;27.73
42197;BMP280;27866;48.146;17.098;2023-07-20T19:10:58;99094.91;;;27.59
42197;BMP280;27866;48.146;17.098;2023-07-20T19:15:11;99104.94;;;27.57
42197;BMP280;27866;48.146;17.098;2023-07-20T19:19:24;99115.00;;;27.55
42197;BMP280;27866;48.146;17.098;2023-07-20T19:23:35;99126.03;;;27.58
42197;BMP280;27866;48.146;17.098;2023-07-20T19:27:46;99124.38;;;27.57
42197;BMP280;27866;48.146;17.098;2023-07-20T19:31:59;99130.19;;;27.54
42197;BMP280;27866;48.146;17.098;2023-07-20T19:36:10;99137.47;;;27.59
42197;BMP280;27866;48.146;17.098;2023-07-20T19:40:21;99141.00;;;27.70
42197;BMP280;27866;48.146;17.098;2023-07-20T19:44:32;99145.28;;;27.71
42197;BMP280;27866;48.146;17.098;2023-07-20T19:48:44;99142.47;;;27.66
42197;BMP280;27866;48.146;17.098;2023-07-20T19:52:55;99146.19;;;27.65
42197;BMP280;27866;48.146;17.098;2023-07-20T19:57:06;99149.38;;;27.56
42197;BMP280;27866;48.146;17.098;2023-07-20T20:01:17;99162.41;;;27.46
42197;BMP280;27866;48.146;17.098;2023-07-20T20:05:31;99173.31;;;27.39
42197;BMP280;27866;48.146;17.098;2023-07-20T20:09:46;99164.88;;;27.42
42197;BMP280;27866;48.146;17.098;2023-07-20T20:13:57;99168.06;;;27.50
42197;BMP280;27866;48.146;17.098;2023-07-20T20:18:08;99175.75;;;27.58
42197;BMP280;27866;48.146;17.098;2023-07-20T20:22:19;99184.88;;;27.50
42197;BMP280;27866;48.146;17.098;2023-07-20T20:26:30;99190.28;;;27.38
42197;BMP280;27866;48.146;17.098;2023-07-20T20:30:50;99182.53;;;27.36
42197;BMP280;27866;48.146;17.098;2023-07-20T20:35:01;99173.72;;;27.36
42197;BMP280;27866;48.146;17.098;2023-07-20T20:39:13;99168.50;;;27.30
42197;BMP280;27866;48.146;17.098;2023-07-20T20:43:24;99167.91;;;27.28
42197;BMP280;27866;48.146;17.098;2023-07-20T20:47:40;99175.00;;;27.16
42197;BMP280;27866;48.146;17.098;2023-07-20T20:51:51;99174.56;;;27.02
42197;BMP280;27866;48.146;17.098;2023-07-20T20:56:02;99180.88;;;27.01
42197;BMP280;27866;48.146;17.098;2023-07-20T21:00:14;99176.38;;;27.01
42197;BMP280;27866;48.146;17.098;2023-07-20T21:04:25;99180.44;;;27.03
42197;BMP280;27866;48.146;17.098;2023-07-20T21:08:36;99184.59;;;27.00
42197;BMP280;27866;48.146;17.098;2023-07-20T21:12:47;99174.47;;;26.84
42197;BMP280;27866;48.146;17.098;2023-07-20T21:16:58;99181.88;;;26.82
42197;BMP280;27866;48.146;17.098;2023-07-20T21:21:09;99190.47;;;26.78
42197;BMP280;27866;48.146;17.098;2023-07-20T21:25:20;99196.84;;;26.77
42197;BMP280;27866;48.146;17.098;2023-07-20T21:29:31;99196.63;;;26.78
42197;BMP280;27866;48.146;17.098;2023-07-20T21:33:42;99204.41;;;26.73
42197;BMP280;27866;48.146;17.098;2023-07-20T21:37:54;99200.28;;;26.77
42197;BMP280;27866;48.146;17.098;2023-07-20T21:42:05;99198.22;;;26.79
42197;BMP280;27866;48.146;17.098;2023-07-20T21:46:16;99202.28;;;26.88
42197;BMP280;27866;48.146;17.098;2023-07-20T21:50:27;99199.78;;;26.93
42197;BMP280;27866;48.146;17.098;2023-07-20T21:54:39;99198.91;;;26.99
42197;BMP280;27866;48.146;17.098;2023-07-20T21:58:50;99206.28;;;26.97
42197;BMP280;27866;48.146;17.098;2023-07-20T22:03:01;99200.69;;;26.81
42197;BMP280;27866;48.146;17.098;2023-07-20T22:07:12;99208.53;;;26.70
42197;BMP280;27866;48.146;17.098;2023-07-20T22:11:26;99205.13;;;26.63
42197;BMP280;27866;48.146;17.098;2023-07-20T22:15:38;99203.31;;;26.57
42197;BMP280;27866;48.146;17.098;2023-07-20T22:19:49;99207.31;;;26.66
42197;BMP280;27866;48.146;17.098;2023-07-20T22:24:00;99207.06;;;26.73
42197;BMP280;27866;48.146;17.098;2023-07-20T22:28:11;99215.91;;;26.68
42197;BMP280;27866;48.146;17.098;2023-07-20T22:32:22;99215.59;;;26.58
42197;BMP280;27866;48.146;17.098;2023-07-20T22:36:33;99209.75;;;26.43
42197;BMP280;27866;48.146;17.098;2023-07-20T22:40:44;99213.34;;;26.31
42197;BMP280;27866;48.146;17.098;2023-07-20T22:44:57;99210.50;;;26.20
42197;BMP280;27866;48.146;17.098;2023-07-20T22:49:08;99205.28;;;26.08
42197;BMP280;27866;48.146;17.098;2023-07-20T22:53:19;99206.56;;;25.99
42197;BMP280;27866;48.146;17.098;2023-07-20T22:57:31;99205.00;;;25.85
42197;BMP280;27866;48.146;17.098;2023-07-20T23:01:43;99208.34;;;25.75
42197;BMP280;27866;48.146;17.098;2023-07-20T23:05:54;99212.41;;;25.65
42197;BMP280;27866;48.146;17.098;2023-07-20T23:10:06;99224.69;;;25.59
42197;BMP280;27866;48.146;17.098;2023-07-20T23:14:20;99209.63;;;25.47
42197;BMP280;27866;48.146;17.098;2023-07-20T23:18:32;99204.75;;;25.38
42197;BMP280;27866;48.146;17.098;2023-07-20T23:22:46;99204.97;;;25.37
42197;BMP280;27866;48.146;17.098;2023-07-20T23:26:58;99206.03;;;25.29
42197;BMP280;27866;48.146;17.098;2023-07-20T23:31:10;99208.28;;;25.20
42197;BMP280;27866;48.146;17.098;2023-07-20T23:35:21;99212.78;;;25.13
42197;BMP280;27866;48.146;17.098;2023-07-20T23:39:32;99205.47;;;25.09
42197;BMP280;27866;48.146;17.098;2023-07-20T23:43:43;99210.72;;;25.02
42197;BMP280;27866;48.146;17.098;2023-07-20T23:47:54;99210.53;;;24.97
42197;BMP280;27866;48.146;17.098;2023-07-20T23:52:05;99203.00;;;24.88
42197;BMP280;27866;48.146;17.098;2023-07-20T23:56:17;99205.88;;;24.87
